sensor_id;sensor_type;location;lat;lon;timestamp;pressure;altitude;pressure_sealevel;temperature
69590;BMP180;56792;50.644;17.984;2023-05-07T00:01:45;99960.60;;;9.90
69590;BMP180;56792;50.644;17.984;2023-05-07T00:04:13;99959.20;;;9.90
69590;BMP180;56792;50.644;17.984;2023-05-07T00:06:42;99961.40;;;9.90
69590;BMP180;56792;50.644;17.984;2023-05-07T00:09:11;99963.60;;;9.90
69590;BMP180;56792;50.644;17.984;2023-05-07T00:11:39;99966.40;;;9.80
69590;BMP180;56792;50.644;17.984;2023-05-07T00:14:07;99967.60;;;9.80
69590;BMP180;56792;50.644;17.984;2023-05-07T00:16:36;99969.20;;;9.80
69590;BMP180;56792;50.644;17.984;2023-05-07T00:19:04;99967.20;;;9.80
69590;BMP180;56792;50.644;17.984;2023-05-07T00:21:32;99967.20;;;9.80
69590;BMP180;56792;50.644;17.984;2023-05-07T00:24:00;99968.00;;;9.70
69590;BMP180;56792;50.644;17.984;2023-05-07T00:26:29;99963.40;;;9.70
69590;BMP180;56792;50.644;17.984;2023-05-07T00:28:57;99966.40;;;9.70
69590;BMP180;56792;50.644;17.984;2023-05-07T00:31:25;99963.80;;;9.70
69590;BMP180;56792;50.644;17.984;2023-05-07T00:33:54;99965.20;;;9.66
69590;BMP180;56792;50.644;17.984;2023-05-07T00:36:22;99970.40;;;9.66
69590;BMP180;56792;50.644;17.984;2023-05-07T00:38:50;99975.00;;;9.60
69590;BMP180;56792;50.644;17.984;2023-05-07T00:41:18;99973.20;;;9.60
69590;BMP180;56792;50.644;17.984;2023-05-07T00:43:47;99969.00;;;9.60
69590;BMP180;56792;50.644;17.984;2023-05-07T00:46:16;99972.80;;;9.60
69590;BMP180;56792;50.644;17.984;2023-05-07T00:48:44;99977.00;;;9.60
69590;BMP180;56792;50.644;17.984;2023-05-07T00:51:13;99977.00;;;9.58
69590;BMP180;56792;50.644;17.984;2023-05-07T00:53:42;99971.20;;;9.58
69590;BMP180;56792;50.644;17.984;2023-05-07T00:56:10;99974.20;;;9.56
69590;BMP180;56792;50.644;17.984;2023-05-07T00:58:39;99974.40;;;9.56
69590;BMP180;56792;50.644;17.984;2023-05-07T01:01:08;99978.60;;;9.50
69590;BMP180;56792;50.644;17.984;2023-05-07T01:03:36;99979.00;;;9.50
69590;BMP180;56792;50.644;17.984;2023-05-07T01:06:06;99986.40;;;9.50
69590;BMP180;56792;50.644;17.984;2023-05-07T01:08:36;99982.00;;;9.50
69590;BMP180;56792;50.644;17.984;2023-05-07T01:11:08;99987.80;;;9.50
69590;BMP180;56792;50.644;17.984;2023-05-07T01:13:37;99986.40;;;9.50
69590;BMP180;56792;50.644;17.984;2023-05-07T01:16:09;99985.00;;;9.50
69590;BMP180;56792;50.644;17.984;2023-05-07T01:18:37;99983.60;;;9.50
69590;BMP180;56792;50.644;17.984;2023-05-07T01:21:07;99986.00;;;9.50
69590;BMP180;56792;50.644;17.984;2023-05-07T01:23:38;99982.40;;;9.40
69590;BMP180;56792;50.644;17.984;2023-05-07T01:26:06;99983.60;;;9.50
69590;BMP180;56792;50.644;17.984;2023-05-07T01:28:35;99987.00;;;9.52
69590;BMP180;56792;50.644;17.984;2023-05-07T01:31:05;99985.60;;;9.60
69590;BMP180;56792;50.644;17.984;2023-05-07T01:33:37;99987.80;;;9.50
69590;BMP180;56792;50.644;17.984;2023-05-07T01:36:08;99988.40;;;9.50
69590;BMP180;56792;50.644;17.984;2023-05-07T01:38:40;99990.80;;;9.50
69590;BMP180;56792;50.644;17.984;2023-05-07T01:41:09;99991.00;;;9.50
69590;BMP180;56792;50.644;17.984;2023-05-07T01:43:38;99993.20;;;9.50
69590;BMP180;56792;50.644;17.984;2023-05-07T01:46:09;99994.40;;;9.46
69590;BMP180;56792;50.644;17.984;2023-05-07T01:48:39;99995.60;;;9.40
69590;BMP180;56792;50.644;17.984;2023-05-07T01:51:09;100002.00;;;9.48
69590;BMP180;56792;50.644;17.984;2023-05-07T01:53:39;100003.80;;;9.40
69590;BMP180;56792;50.644;17.984;2023-05-07T01:56:08;100002.00;;;9.40
69590;BMP180;56792;50.644;17.984;2023-05-07T01:58:37;100005.20;;;9.40
69590;BMP180;56792;50.644;17.984;2023-05-07T02:01:05;100004.80;;;9.40
69590;BMP180;56792;50.644;17.984;2023-05-07T02:03:34;100000.40;;;9.32
69590;BMP180;56792;50.644;17.984;2023-05-07T02:06:07;100001.80;;;9.30
69590;BMP180;56792;50.644;17.984;2023-05-07T02:08:40;99998.20;;;9.30
69590;BMP180;56792;50.644;17.984;2023-05-07T02:11:08;99994.60;;;9.30
69590;BMP180;56792;50.644;17.984;2023-05-07T02:13:37;99996.00;;;9.28
69590;BMP180;56792;50.644;17.984;2023-05-07T02:16:07;99993.40;;;9.22
69590;BMP180;56792;50.644;17.984;2023-05-07T02:18:35;99994.60;;;9.20
69590;BMP180;56792;50.644;17.984;2023-05-07T02:21:04;99987.20;;;9.20
69590;BMP180;56792;50.644;17.984;2023-05-07T02:23:32;99985.20;;;9.20
69590;BMP180;56792;50.644;17.984;2023-05-07T02:26:00;99985.00;;;9.20
69590;BMP180;56792;50.644;17.984;2023-05-07T02:28:29;99986.00;;;9.20
69590;BMP180;56792;50.644;17.984;2023-05-07T02:31:01;99984.60;;;9.10
69590;BMP180;56792;50.644;17.984;2023-05-07T02:33:30;99987.20;;;9.10
69590;BMP180;56792;50.644;17.984;2023-05-07T02:36:07;99988.20;;;9.10
69590;BMP180;56792;50.644;17.984;2023-05-07T02:38:36;99989.20;;;9.10
69590;BMP180;56792;50.644;17.984;2023-05-07T02:41:05;99996.20;;;9.10
69590;BMP180;56792;50.644;17.984;2023-05-07T02:43:33;99992.40;;;9.10
69590;BMP180;56792;50.644;17.984;2023-05-07T02:46:07;99995.80;;;9.10
69590;BMP180;56792;50.644;17.984;2023-05-07T02:48:37;100000.60;;;9.10
69590;BMP180;56792;50.644;17.984;2023-05-07T02:51:06;100001.60;;;9.10
69590;BMP180;56792;50.644;17.984;2023-05-07T02:53:34;100008.00;;;9.10
69590;BMP180;56792;50.644;17.984;2023-05-07T02:56:03;100013.40;;;9.10
69590;BMP180;56792;50.644;17.984;2023-05-07T02:58:33;100012.60;;;9.10
69590;BMP180;56792;50.644;17.984;2023-05-07T03:01:02;100011.40;;;9.00
69590;BMP180;56792;50.644;17.984;2023-05-07T03:03:43;100004.60;;;9.00
69590;BMP180;56792;50.644;17.984;2023-05-07T03:06:11;100009.00;;;9.00
69590;BMP180;56792;50.644;17.984;2023-05-07T03:08:40;100007.60;;;9.00
69590;BMP180;56792;50.644;17.984;2023-05-07T03:11:08;100012.40;;;8.90
69590;BMP180;56792;50.644;17.984;2023-05-07T03:13:36;100015.00;;;8.90
69590;BMP180;56792;50.644;17.984;2023-05-07T03:16:06;100016.40;;;8.90
69590;BMP180;56792;50.644;17.984;2023-05-07T03:18:34;100021.60;;;8.80
69590;BMP180;56792;50.644;17.984;2023-05-07T03:21:03;100023.00;;;8.88
69590;BMP180;56792;50.644;17.984;2023-05-07T03:23:31;100024.80;;;8.84
69590;BMP180;56792;50.644;17.984;2023-05-07T03:25:59;100025.40;;;8.88
69590;BMP180;56792;50.644;17.984;2023-05-07T03:28:27;100028.80;;;8.88
69590;BMP180;56792;50.644;17.984;2023-05-07T03:30:59;100032.40;;;8.90
69590;BMP180;56792;50.644;17.984;2023-05-07T03:33:28;100031.80;;;8.86
69590;BMP180;56792;50.644;17.984;2023-05-07T03:35:57;100035.00;;;8.80
69590;BMP180;56792;50.644;17.984;2023-05-07T03:38:26;100036.60;;;8.80
69590;BMP180;56792;50.644;17.984;2023-05-07T03:40:55;100043.20;;;8.80
69590;BMP180;56792;50.644;17.984;2023-05-07T03:43:23;100048.40;;;8.80
69590;BMP180;56792;50.644;17.984;2023-05-07T03:45:58;100053.00;;;8.70
69590;BMP180;56792;50.644;17.984;2023-05-07T03:48:28;100052.40;;;8.76
69590;BMP180;56792;50.644;17.984;2023-05-07T03:50:59;100053.60;;;8.70
69590;BMP180;56792;50.644;17.984;2023-05-07T03:53:30;100056.20;;;8.70
69590;BMP180;56792;50.644;17.984;2023-05-07T03:55:58;100057.20;;;8.70
69590;BMP180;56792;50.644;17.984;2023-05-07T03:58:27;100058.40;;;8.70
69590;BMP180;56792;50.644;17.984;2023-05-07T04:00:56;100067.00;;;8.70
69590;BMP180;56792;50.644;17.984;2023-05-07T04:03:27;100070.60;;;8.70
69590;BMP180;56792;50.644;17.984;2023-05-07T04:05:57;100065.80;;;8.70
69590;BMP180;56792;50.644;17.984;2023-05-07T04:08:25;100072.60;;;8.70
69590;BMP180;56792;50.644;17.984;2023-05-07T04:10:57;100077.80;;;8.70
69590;BMP180;56792;50.644;17.984;2023-05-07T04:13:26;100083.40;;;8.68
69590;BMP180;56792;50.644;17.984;2023-05-07T04:15:55;100081.80;;;8.68
69590;BMP180;56792;50.644;17.984;2023-05-07T04:18:24;100089.40;;;8.70
69590;BMP180;56792;50.644;17.984;2023-05-07T04:20:53;100089.40;;;8.70
69590;BMP180;56792;50.644;17.984;2023-05-07T04:23:21;100094.00;;;8.70
69590;BMP180;56792;50.644;17.984;2023-05-07T04:25:49;100095.80;;;8.70
69590;BMP180;56792;50.644;17.984;2023-05-07T04:28:26;100099.60;;;8.70
69590;BMP180;56792;50.644;17.984;2023-05-07T04:30:55;100101.60;;;8.70
69590;BMP180;56792;50.644;17.984;2023-05-07T04:33:23;100099.00;;;8.70
69590;BMP180;56792;50.644;17.984;2023-05-07T04:35:52;100105.00;;;8.70
69590;BMP180;56792;50.644;17.984;2023-05-07T04:38:20;100109.20;;;8.70
69590;BMP180;56792;50.644;17.984;2023-05-07T04:40:50;100111.60;;;8.70
69590;BMP180;56792;50.644;17.984;2023-05-07T04:43:21;100117.40;;;8.70
69590;BMP180;56792;50.644;17.984;2023-05-07T04:45:52;100119.00;;;8.70
69590;BMP180;56792;50.644;17.984;2023-05-07T04:48:20;100121.80;;;8.70
69590;BMP180;56792;50.644;17.984;2023-05-07T04:50:50;100130.00;;;8.70
69590;BMP180;56792;50.644;17.984;2023-05-07T04:53:19;100135.60;;;8.68
69590;BMP180;56792;50.644;17.984;2023-05-07T04:55:47;100138.60;;;8.70
69590;BMP180;56792;50.644;17.984;2023-05-07T04:58:16;100141.40;;;8.70
69590;BMP180;56792;50.644;17.984;2023-05-07T05:00:45;100144.80;;;8.70
69590;BMP180;56792;50.644;17.984;2023-05-07T05:03:14;100145.00;;;8.70
69590;BMP180;56792;50.644;17.984;2023-05-07T05:05:43;100148.60;;;8.70
69590;BMP180;56792;50.644;17.984;2023-05-07T05:08:11;100153.20;;;8.70
69590;BMP180;56792;50.644;17.984;2023-05-07T05:10:40;100153.20;;;8.70
69590;BMP180;56792;50.644;17.984;2023-05-07T05:13:09;100156.00;;;8.70
69590;BMP180;56792;50.644;17.984;2023-05-07T05:15:37;100164.40;;;8.70
69590;BMP180;56792;50.644;17.984;2023-05-07T05:18:05;100165.00;;;8.70
69590;BMP180;56792;50.644;17.984;2023-05-07T05:20:34;100163.20;;;8.70
69590;BMP180;56792;50.644;17.984;2023-05-07T05:23:02;100169.80;;;8.64
69590;BMP180;56792;50.644;17.984;2023-05-07T05:25:31;100169.40;;;8.70
69590;BMP180;56792;50.644;17.984;2023-05-07T05:27:59;100174.40;;;8.70
69590;BMP180;56792;50.644;17.984;2023-05-07T05:30:29;100181.40;;;8.70
69590;BMP180;56792;50.644;17.984;2023-05-07T05:32:57;100176.00;;;8.74
69590;BMP180;56792;50.644;17.984;2023-05-07T05:35:27;100184.20;;;8.74
69590;BMP180;56792;50.644;17.984;2023-05-07T05:37:56;100189.60;;;8.76
69590;BMP180;56792;50.644;17.984;2023-05-07T05:40:24;100187.20;;;8.76
69590;BMP180;56792;50.644;17.984;2023-05-07T05:42:53;100191.20;;;8.70
69590;BMP180;56792;50.644;17.984;2023-05-07T05:45:21;100194.00;;;8.76
69590;BMP180;56792;50.644;17.984;2023-05-07T05:47:49;100197.80;;;8.80
69590;BMP180;56792;50.644;17.984;2023-05-07T05:50:18;100198.60;;;8.80
69590;BMP180;56792;50.644;17.984;2023-05-07T05:52:46;100201.60;;;8.90
69590;BMP180;56792;50.644;17.984;2023-05-07T05:55:16;100199.60;;;8.90
69590;BMP180;56792;50.644;17.984;2023-05-07T05:57:45;100200.60;;;8.90
69590;BMP180;56792;50.644;17.984;2023-05-07T06:00:15;100200.60;;;8.90
69590;BMP180;56792;50.644;17.984;2023-05-07T06:02:46;100201.00;;;8.90
69590;BMP180;56792;50.644;17.984;2023-05-07T06:05:18;100199.80;;;8.90
69590;BMP180;56792;50.644;17.984;2023-05-07T06:07:47;100202.40;;;8.90
69590;BMP180;56792;50.644;17.984;2023-05-07T06:10:16;100204.40;;;8.90
69590;BMP180;56792;50.644;17.984;2023-05-07T06:12:45;100204.40;;;8.98
69590;BMP180;56792;50.644;17.984;2023-05-07T06:15:14;100207.00;;;9.00
69590;BMP180;56792;50.644;17.984;2023-05-07T06:17:42;100214.00;;;9.06
69590;BMP180;56792;50.644;17.984;2023-05-07T06:20:11;100209.80;;;9.10
69590;BMP180;56792;50.644;17.984;2023-05-07T06:22:40;100214.80;;;9.00
69590;BMP180;56792;50.644;17.984;2023-05-07T06:25:10;100209.80;;;9.00
69590;BMP180;56792;50.644;17.984;2023-05-07T06:27:38;100217.20;;;9.00
69590;BMP180;56792;50.644;17.984;2023-05-07T06:30:09;100214.00;;;8.90
69590;BMP180;56792;50.644;17.984;2023-05-07T06:32:39;100214.60;;;8.94
69590;BMP180;56792;50.644;17.984;2023-05-07T06:35:09;100218.80;;;8.90
69590;BMP180;56792;50.644;17.984;2023-05-07T06:37:38;100219.60;;;8.90
69590;BMP180;56792;50.644;17.984;2023-05-07T06:40:11;100217.40;;;9.00
69590;BMP180;56792;50.644;17.984;2023-05-07T06:42:40;100222.00;;;9.04
69590;BMP180;56792;50.644;17.984;2023-05-07T06:45:24;100220.40;;;9.10
69590;BMP180;56792;50.644;17.984;2023-05-07T06:47:54;100223.00;;;9.10
69590;BMP180;56792;50.644;17.984;2023-05-07T06:50:23;100225.20;;;9.12
69590;BMP180;56792;50.644;17.984;2023-05-07T06:52:51;100231.00;;;9.12
69590;BMP180;56792;50.644;17.984;2023-05-07T06:55:20;100238.00;;;9.20
69590;BMP180;56792;50.644;17.984;2023-05-07T06:57:48;100244.20;;;9.20
69590;BMP180;56792;50.644;17.984;2023-05-07T07:00:19;100244.80;;;9.20
69590;BMP180;56792;50.644;17.984;2023-05-07T07:02:52;100247.40;;;9.30
69590;BMP180;56792;50.644;17.984;2023-05-07T07:05:22;100251.80;;;9.30
69590;BMP180;56792;50.644;17.984;2023-05-07T07:07:50;100247.20;;;9.30
69590;BMP180;56792;50.644;17.984;2023-05-07T07:10:20;100262.40;;;9.30
69590;BMP180;56792;50.644;17.984;2023-05-07T07:12:50;100262.80;;;9.40
69590;BMP180;56792;50.644;17.984;2023-05-07T07:15:21;100265.00;;;9.40
69590;BMP180;56792;50.644;17.984;2023-05-07T07:17:50;100268.40;;;9.40
69590;BMP180;56792;50.644;17.984;2023-05-07T07:20:18;100270.60;;;9.40
69590;BMP180;56792;50.644;17.984;2023-05-07T07:22:46;100274.80;;;9.38
69590;BMP180;56792;50.644;17.984;2023-05-07T07:25:16;100277.40;;;9.30
69590;BMP180;56792;50.644;17.984;2023-05-07T07:27:45;100277.20;;;9.30
69590;BMP180;56792;50.644;17.984;2023-05-07T07:30:14;100274.40;;;9.30
69590;BMP180;56792;50.644;17.984;2023-05-07T07:32:43;100275.00;;;9.30
69590;BMP180;56792;50.644;17.984;2023-05-07T07:35:12;100283.80;;;9.40
69590;BMP180;56792;50.644;17.984;2023-05-07T07:37:40;100285.00;;;9.40
69590;BMP180;56792;50.644;17.984;2023-05-07T07:40:12;100282.80;;;9.50
69590;BMP180;56792;50.644;17.984;2023-05-07T07:42:40;100283.40;;;9.58
69590;BMP180;56792;50.644;17.984;2023-05-07T07:45:10;100284.00;;;9.52
69590;BMP180;56792;50.644;17.984;2023-05-07T07:47:41;100287.00;;;9.50
69590;BMP180;56792;50.644;17.984;2023-05-07T07:50:11;100290.80;;;9.46
69590;BMP180;56792;50.644;17.984;2023-05-07T07:52:39;100296.60;;;9.40
69590;BMP180;56792;50.644;17.984;2023-05-07T07:55:10;100308.80;;;9.40
69590;BMP180;56792;50.644;17.984;2023-05-07T07:57:38;100307.80;;;9.40
69590;BMP180;56792;50.644;17.984;2023-05-07T08:00:11;100310.00;;;9.46
69590;BMP180;56792;50.644;17.984;2023-05-07T08:02:45;100312.40;;;9.50
69590;BMP180;56792;50.644;17.984;2023-05-07T08:05:18;100314.80;;;9.50
69590;BMP180;56792;50.644;17.984;2023-05-07T08:07:48;100315.80;;;9.60
69590;BMP180;56792;50.644;17.984;2023-05-07T08:10:21;100320.60;;;9.60
69590;BMP180;56792;50.644;17.984;2023-05-07T08:12:51;100322.20;;;9.66
69590;BMP180;56792;50.644;17.984;2023-05-07T08:15:19;100324.60;;;9.70
69590;BMP180;56792;50.644;17.984;2023-05-07T08:17:48;100322.80;;;9.70
69590;BMP180;56792;50.644;17.984;2023-05-07T08:20:17;100326.20;;;9.70
69590;BMP180;56792;50.644;17.984;2023-05-07T08:22:45;100334.60;;;9.70
69590;BMP180;56792;50.644;17.984;2023-05-07T08:25:14;100337.00;;;9.80
69590;BMP180;56792;50.644;17.984;2023-05-07T08:27:42;100340.20;;;9.80
69590;BMP180;56792;50.644;17.984;2023-05-07T08:30:15;100344.60;;;9.76
69590;BMP180;56792;50.644;17.984;2023-05-07T08:32:43;100344.40;;;9.80
69590;BMP180;56792;50.644;17.984;2023-05-07T08:35:12;100340.60;;;9.80
69590;BMP180;56792;50.644;17.984;2023-05-07T08:37:40;100341.00;;;10.00
69590;BMP180;56792;50.644;17.984;2023-05-07T08:40:10;100339.00;;;10.26
69590;BMP180;56792;50.644;17.984;2023-05-07T08:42:40;100341.60;;;10.40
69590;BMP180;56792;50.644;17.984;2023-05-07T08:45:11;100346.20;;;10.50
69590;BMP180;56792;50.644;17.984;2023-05-07T08:47:47;100345.80;;;10.50
69590;BMP180;56792;50.644;17.984;2023-05-07T08:50:20;100347.00;;;10.50
69590;BMP180;56792;50.644;17.984;2023-05-07T08:52:49;100349.00;;;10.50
69590;BMP180;56792;50.644;17.984;2023-05-07T08:55:19;100350.20;;;10.50
69590;BMP180;56792;50.644;17.984;2023-05-07T08:57:48;100353.00;;;10.50
69590;BMP180;56792;50.644;17.984;2023-05-07T09:00:17;100360.20;;;10.56
69590;BMP180;56792;50.644;17.984;2023-05-07T09:02:46;100356.20;;;10.54
69590;BMP180;56792;50.644;17.984;2023-05-07T09:05:15;100354.80;;;10.50
69590;BMP180;56792;50.644;17.984;2023-05-07T09:07:44;100353.80;;;10.50
69590;BMP180;56792;50.644;17.984;2023-05-07T09:10:15;100356.80;;;10.56
69590;BMP180;56792;50.644;17.984;2023-05-07T09:12:43;100356.60;;;10.70
69590;BMP180;56792;50.644;17.984;2023-05-07T09:15:14;100362.60;;;11.00
69590;BMP180;56792;50.644;17.984;2023-05-07T09:17:44;100366.60;;;11.20
69590;BMP180;56792;50.644;17.984;2023-05-07T09:20:13;100369.40;;;11.20
69590;BMP180;56792;50.644;17.984;2023-05-07T09:22:42;100364.20;;;11.20
69590;BMP180;56792;50.644;17.984;2023-05-07T09:25:13;100365.80;;;11.30
69590;BMP180;56792;50.644;17.984;2023-05-07T09:27:43;100372.20;;;11.40
69590;BMP180;56792;50.644;17.984;2023-05-07T09:30:13;100370.60;;;11.50
69590;BMP180;56792;50.644;17.984;2023-05-07T09:32:41;100369.00;;;11.50
69590;BMP180;56792;50.644;17.984;2023-05-07T09:35:17;100369.60;;;11.50
69590;BMP180;56792;50.644;17.984;2023-05-07T09:37:47;100368.00;;;11.70
69590;BMP180;56792;50.644;17.984;2023-05-07T09:40:23;100369.20;;;11.90
69590;BMP180;56792;50.644;17.984;2023-05-07T09:42:52;100374.00;;;12.00
69590;BMP180;56792;50.644;17.984;2023-05-07T09:45:25;100382.40;;;12.10
69590;BMP180;56792;50.644;17.984;2023-05-07T09:47:57;100379.40;;;12.08
69590;BMP180;56792;50.644;17.984;2023-05-07T09:50:30;100386.60;;;11.92
69590;BMP180;56792;50.644;17.984;2023-05-07T09:53:03;100391.00;;;11.80
69590;BMP180;56792;50.644;17.984;2023-05-07T09:55:32;100390.60;;;11.70
69590;BMP180;56792;50.644;17.984;2023-05-07T09:58:02;100387.00;;;11.60
69590;BMP180;56792;50.644;17.984;2023-05-07T10:00:34;100385.80;;;11.68
69590;BMP180;56792;50.644;17.984;2023-05-07T10:03:07;100389.40;;;11.86
69590;BMP180;56792;50.644;17.984;2023-05-07T10:06:04;100383.60;;;12.10
69590;BMP180;56792;50.644;17.984;2023-05-07T10:08:33;100387.00;;;12.30
69590;BMP180;56792;50.644;17.984;2023-05-07T10:11:04;100391.60;;;12.34
69590;BMP180;56792;50.644;17.984;2023-05-07T10:13:33;100405.00;;;12.30
69590;BMP180;56792;50.644;17.984;2023-05-07T10:16:05;100409.00;;;12.20
69590;BMP180;56792;50.644;17.984;2023-05-07T10:21:17;100413.00;;;11.90
69590;BMP180;56792;50.644;17.984;2023-05-07T10:23:50;100410.80;;;12.00
69590;BMP180;56792;50.644;17.984;2023-05-07T10:26:21;100416.00;;;12.10
69590;BMP180;56792;50.644;17.984;2023-05-07T10:28:58;100416.40;;;12.10
69590;BMP180;56792;50.644;17.984;2023-05-07T10:31:54;100417.80;;;12.20
69590;BMP180;56792;50.644;17.984;2023-05-07T10:34:29;100425.60;;;12.50
69590;BMP180;56792;50.644;17.984;2023-05-07T10:37:01;100431.40;;;12.70
69590;BMP180;56792;50.644;17.984;2023-05-07T10:39:31;100431.40;;;12.80
69590;BMP180;56792;50.644;17.984;2023-05-07T10:42:09;100427.20;;;12.90
69590;BMP180;56792;50.644;17.984;2023-05-07T10:44:38;100425.60;;;12.80
69590;BMP180;56792;50.644;17.984;2023-05-07T10:47:11;100430.00;;;12.70
69590;BMP180;56792;50.644;17.984;2023-05-07T10:50:22;100427.40;;;12.64
69590;BMP180;56792;50.644;17.984;2023-05-07T10:53:24;100430.40;;;12.50
69590;BMP180;56792;50.644;17.984;2023-05-07T10:56:27;100424.40;;;12.22
69590;BMP180;56792;50.644;17.984;2023-05-07T10:59:37;100423.60;;;12.06
69590;BMP180;56792;50.644;17.984;2023-05-07T11:02:18;100424.20;;;11.90
69590;BMP180;56792;50.644;17.984;2023-05-07T11:05:20;100421.40;;;11.80
69590;BMP180;56792;50.644;17.984;2023-05-07T11:07:56;100426.00;;;11.90
69590;BMP180;56792;50.644;17.984;2023-05-07T11:10:52;100433.60;;;11.90
69590;BMP180;56792;50.644;17.984;2023-05-07T11:13:45;100434.40;;;11.90
69590;BMP180;56792;50.644;17.984;2023-05-07T11:16:25;100428.60;;;11.90
69590;BMP180;56792;50.644;17.984;2023-05-07T11:19:01;100434.80;;;11.82
69590;BMP180;56792;50.644;17.984;2023-05-07T11:21:39;100435.00;;;11.80
69590;BMP180;56792;50.644;17.984;2023-05-07T11:24:13;100435.80;;;11.80
69590;BMP180;56792;50.644;17.984;2023-05-07T11:27:03;100434.60;;;11.70
69590;BMP180;56792;50.644;17.984;2023-05-07T11:29:32;100446.00;;;11.60
69590;BMP180;56792;50.644;17.984;2023-05-07T11:32:07;100447.20;;;11.50
69590;BMP180;56792;50.644;17.984;2023-05-07T11:34:41;100453.20;;;11.48
69590;BMP180;56792;50.644;17.984;2023-05-07T11:37:10;100455.00;;;11.46
69590;BMP180;56792;50.644;17.984;2023-05-07T11:39:48;100451.60;;;11.40
69590;BMP180;56792;50.644;17.984;2023-05-07T11:42:29;100455.20;;;11.40
69590;BMP180;56792;50.644;17.984;2023-05-07T11:44:58;100453.00;;;11.44
69590;BMP180;56792;50.644;17.984;2023-05-07T11:47:29;100452.20;;;11.50
69590;BMP180;56792;50.644;17.984;2023-05-07T11:50:03;100456.60;;;11.60
69590;BMP180;56792;50.644;17.984;2023-05-07T11:52:32;100464.60;;;11.60
69590;BMP180;56792;50.644;17.984;2023-05-07T11:55:02;100466.40;;;11.60
69590;BMP180;56792;50.644;17.984;2023-05-07T11:57:33;100467.00;;;11.50
69590;BMP180;56792;50.644;17.984;2023-05-07T12:00:03;100467.80;;;11.44
69590;BMP180;56792;50.644;17.984;2023-05-07T12:02:40;100469.00;;;11.42
69590;BMP180;56792;50.644;17.984;2023-05-07T12:05:09;100472.40;;;11.40
69590;BMP180;56792;50.644;17.984;2023-05-07T12:07:38;100470.80;;;11.40
69590;BMP180;56792;50.644;17.984;2023-05-07T12:10:08;100470.20;;;11.30
69590;BMP180;56792;50.644;17.984;2023-05-07T12:12:40;100469.00;;;11.30
69590;BMP180;56792;50.644;17.984;2023-05-07T12:15:10;100474.20;;;11.40
69590;BMP180;56792;50.644;17.984;2023-05-07T12:17:39;100472.40;;;11.50
69590;BMP180;56792;50.644;17.984;2023-05-07T12:20:10;100479.60;;;11.50
69590;BMP180;56792;50.644;17.984;2023-05-07T12:22:39;100481.00;;;11.50
69590;BMP180;56792;50.644;17.984;2023-05-07T12:25:09;100485.40;;;11.40
69590;BMP180;56792;50.644;17.984;2023-05-07T12:27:40;100483.00;;;11.32
69590;BMP180;56792;50.644;17.984;2023-05-07T12:30:13;100485.20;;;11.20
69590;BMP180;56792;50.644;17.984;2023-05-07T12:32:41;100491.80;;;11.10
69590;BMP180;56792;50.644;17.984;2023-05-07T12:35:10;100489.20;;;11.10
69590;BMP180;56792;50.644;17.984;2023-05-07T12:37:38;100494.00;;;11.08
69590;BMP180;56792;50.644;17.984;2023-05-07T12:40:10;100501.00;;;11.00
69590;BMP180;56792;50.644;17.984;2023-05-07T12:42:40;100501.80;;;11.00
69590;BMP180;56792;50.644;17.984;2023-05-07T12:45:15;100500.60;;;11.00
69590;BMP180;56792;50.644;17.984;2023-05-07T12:47:46;100495.60;;;11.00
69590;BMP180;56792;50.644;17.984;2023-05-07T12:50:15;100500.40;;;11.00
69590;BMP180;56792;50.644;17.984;2023-05-07T12:52:45;100497.00;;;11.00
69590;BMP180;56792;50.644;17.984;2023-05-07T12:55:17;100498.00;;;11.10
69590;BMP180;56792;50.644;17.984;2023-05-07T12:57:48;100495.60;;;11.10
69590;BMP180;56792;50.644;17.984;2023-05-07T13:00:18;100487.80;;;11.10
69590;BMP180;56792;50.644;17.984;2023-05-07T13:03:00;100491.00;;;11.20
69590;BMP180;56792;50.644;17.984;2023-05-07T13:05:28;100491.60;;;11.40
69590;BMP180;56792;50.644;17.984;2023-05-07T13:07:56;100492.80;;;11.70
69590;BMP180;56792;50.644;17.984;2023-05-07T13:10:26;100495.80;;;11.80
69590;BMP180;56792;50.644;17.984;2023-05-07T13:12:54;100498.20;;;11.70
69590;BMP180;56792;50.644;17.984;2023-05-07T13:15:23;100501.40;;;11.80
69590;BMP180;56792;50.644;17.984;2023-05-07T13:17:51;100500.60;;;11.90
69590;BMP180;56792;50.644;17.984;2023-05-07T13:20:19;100502.80;;;11.80
69590;BMP180;56792;50.644;17.984;2023-05-07T13:22:48;100501.20;;;11.80
69590;BMP180;56792;50.644;17.984;2023-05-07T13:25:16;100498.00;;;11.80
69590;BMP180;56792;50.644;17.984;2023-05-07T13:27:44;100502.00;;;11.70
69590;BMP180;56792;50.644;17.984;2023-05-07T13:30:13;100502.60;;;11.62
69590;BMP180;56792;50.644;17.984;2023-05-07T13:32:42;100504.20;;;11.60
69590;BMP180;56792;50.644;17.984;2023-05-07T13:35:10;100514.00;;;11.50
69590;BMP180;56792;50.644;17.984;2023-05-07T13:37:38;100516.00;;;11.50
69590;BMP180;56792;50.644;17.984;2023-05-07T13:40:10;100512.00;;;11.36
69590;BMP180;56792;50.644;17.984;2023-05-07T13:42:38;100514.80;;;11.22
69590;BMP180;56792;50.644;17.984;2023-05-07T13:45:10;100514.20;;;11.20
69590;BMP180;56792;50.644;17.984;2023-05-07T13:47:38;100512.00;;;11.20
69590;BMP180;56792;50.644;17.984;2023-05-07T13:50:09;100514.60;;;11.18
69590;BMP180;56792;50.644;17.984;2023-05-07T13:52:39;100517.60;;;11.24
69590;BMP180;56792;50.644;17.984;2023-05-07T13:55:09;100520.20;;;11.40
69590;BMP180;56792;50.644;17.984;2023-05-07T13:57:38;100514.60;;;11.40
69590;BMP180;56792;50.644;17.984;2023-05-07T14:00:11;100510.60;;;11.50
69590;BMP180;56792;50.644;17.984;2023-05-07T14:02:42;100514.20;;;11.50
69590;BMP180;56792;50.644;17.984;2023-05-07T14:05:11;100510.20;;;11.60
69590;BMP180;56792;50.644;17.984;2023-05-07T14:07:41;100512.80;;;11.54
69590;BMP180;56792;50.644;17.984;2023-05-07T14:10:10;100515.60;;;11.50
69590;BMP180;56792;50.644;17.984;2023-05-07T14:12:39;100518.00;;;11.50
69590;BMP180;56792;50.644;17.984;2023-05-07T14:15:10;100522.00;;;11.40
69590;BMP180;56792;50.644;17.984;2023-05-07T14:17:38;100516.20;;;11.30